Time;durP1;ratioP1;P1;durP2;ratioP2;P2;SDS_P1;SDS_P2;PMS_P1;PMS_P2;Temp;Humidity;BMP_temperature;BMP_pressure;BME280_temperature;BME280_humidity;BME280_pressure;Samples;Min_cycle;Max_cycle;Signal;HPM_P1;HPM_P2
2022/01/14 00:01:18;;;;;;;56.02;18.60;;;;;;;-2.98;100.00;100773.22;1713376;83;20892;-90
2022/01/14 00:03:44;;;;;;;73.40;22.03;;;;;;;-2.98;100.00;100767.95;1713675;83;21006;-89
2022/01/14 00:06:11;;;;;;;67.30;21.40;;;;;;;-2.94;100.00;100763.19;1713587;82;21066;-90
2022/01/14 00:08:37;;;;;;;64.90;21.12;;;;;;;-2.89;100.00;100765.30;1713026;83;21059;-90
2022/01/14 00:11:03;;;;;;;71.70;22.35;;;;;;;-2.87;100.00;100752.79;1713289;83;21526;-90
2022/01/14 00:13:55;;;;;;;72.17;22.85;;;;;;;-2.85;100.00;100742.41;1713104;83;21039;-90
2022/01/14 00:16:16;;;;;;;69.30;20.70;;;;;;;-2.85;100.00;100736.31;1709194;83;21059;-89
2022/01/14 00:18:42;;;;;;;67.82;22.20;;;;;;;-2.85;100.00;100734.50;1713633;82;21092;-89
2022/01/14 00:21:08;;;;;;;74.65;23.02;;;;;;;-2.85;100.00;100741.09;1713498;82;21669;-90
2022/01/14 00:23:38;;;;;;;73.00;22.95;;;;;;;-2.84;100.00;100736.13;1713369;83;20912;-90
2022/01/14 00:31:52;;;;;;;71.50;22.50;;;;;;;-2.75;100.00;100710.06;1712991;83;21071;-88
2022/01/14 00:34:15;;;;;;;67.37;21.40;;;;;;;-2.74;100.00;100706.92;1709586;83;28162;-90
2022/01/14 00:36:41;;;;;;;64.30;20.65;;;;;;;-2.71;100.00;100699.17;1713279;83;21118;-90
2022/01/14 00:39:11;;;;;;;62.30;20.77;;;;;;;-2.70;100.00;100706.92;1713477;83;21552;-90
2022/01/14 00:41:39;;;;;;;66.67;20.90;;;;;;;-2.67;100.00;100705.77;1709692;83;21242;-90
2022/01/14 00:44:10;;;;;;;65.42;19.67;;;;;;;-2.66;100.00;100704.77;1713157;83;21082;-90
2022/01/14 00:46:38;;;;;;;64.92;21.17;;;;;;;-2.64;100.00;100712.84;1713306;83;21035;-89
2022/01/14 00:49:04;;;;;;;65.92;20.05;;;;;;;-2.59;100.00;100712.31;1713468;83;21047;-89
2022/01/14 00:51:30;;;;;;;80.67;22.42;;;;;;;-2.58;100.00;100717.43;1713391;83;21507;-89
2022/01/14 00:53:56;;;;;;;64.82;21.70;;;;;;;-2.55;100.00;100716.27;1713430;83;20896;-89
2022/01/14 00:56:31;;;;;;;62.30;19.80;;;;;;;-2.52;100.00;100726.48;1713522;83;21105;-89
2022/01/14 01:01:39;;;;;;;70.65;21.25;;;;;;;-2.48;100.00;100726.45;1713251;83;21513;-89
2022/01/14 01:04:05;;;;;;;71.92;22.17;;;;;;;-2.46;100.00;100715.73;1713169;83;20988;-89
2022/01/14 01:06:31;;;;;;;66.25;21.50;;;;;;;-2.41;100.00;100708.11;1691008;83;21075;-90
2022/01/14 01:08:57;;;;;;;61.48;21.62;;;;;;;-2.39;100.00;100706.95;1713092;82;21873;-90
2022/01/14 01:11:34;;;;;;;69.30;21.30;;;;;;;-2.37;100.00;100699.69;1712766;83;20884;-90
2022/01/14 01:14:08;;;;;;;69.58;20.68;;;;;;;-2.35;100.00;100696.89;1687440;83;21491;-90
2022/01/14 01:16:28;;;;;;;71.10;22.20;;;;;;;-2.32;100.00;100688.13;1709111;83;21070;-92
2022/01/14 01:18:54;;;;;;;66.87;22.10;;;;;;;-2.29;100.00;100676.41;1712932;83;21006;-88
2022/01/14 01:21:20;;;;;;;75.62;23.38;;;;;;;-2.26;100.00;100658.05;1712869;83;21724;-89
2022/01/14 01:23:46;;;;;;;71.50;21.75;;;;;;;-2.27;100.00;100657.23;1712718;83;20896;-89
2022/01/14 01:26:22;;;;;;;70.95;21.65;;;;;;;-2.23;100.00;100659.88;1690856;83;20975;-89
2022/01/14 01:31:35;;;;;;;73.02;22.15;;;;;;;-2.18;100.00;100648.77;1637946;87;21143;-89
2022/01/14 01:33:38;;;;;;;68.57;21.87;;;;;;;-2.15;100.00;100633.39;1637888;87;20956;-89
2022/01/14 01:36:04;;;;;;;71.57;22.27;;;;;;;-2.14;100.00;100616.58;1637922;87;21025;-89
2022/01/14 01:38:30;;;;;;;78.40;23.27;;;;;;;-2.12;100.00;100613.28;1638104;87;20941;-89
2022/01/14 01:40:56;;;;;;;70.72;22.42;;;;;;;-2.10;100.00;100608.62;1638022;87;21646;-89
2022/01/14 01:43:25;;;;;;;71.12;22.95;;;;;;;-2.10;100.00;100593.28;1638092;87;21516;-89
2022/01/14 01:45:54;;;;;;;73.02;22.55;;;;;;;-2.04;100.00;100599.17;1637822;87;21077;-89
2022/01/14 01:48:19;;;;;;;70.20;22.85;;;;;;;-2.00;100.00;100589.92;1637939;87;21068;-89
2022/01/14 01:50:45;;;;;;;72.65;23.00;;;;;;;-1.99;100.00;100584.95;1637898;87;20912;-89
2022/01/14 01:53:11;;;;;;;79.30;22.82;;;;;;;-1.95;100.00;100589.37;1638171;87;21749;-89
2022/01/14 01:55:37;;;;;;;78.28;23.90;;;;;;;-1.95;100.00;100584.91;1638101;87;20948;-89
2022/01/14 01:58:03;;;;;;;68.35;22.45;;;;;;;-1.93;100.00;100584.23;1638217;87;21092;-89
2022/01/14 02:00:29;;;;;;;79.37;24.37;;;;;;;-1.89;100.00;100586.83;1638083;87;21527;-89
2022/01/14 02:02:57;;;;;;;77.50;23.73;;;;;;;-1.88;100.00;100587.67;1638055;87;21004;-89
2022/01/14 02:05:25;;;;;;;76.00;24.43;;;;;;;-1.86;100.00;100580.38;1637796;87;21106;-90
2022/01/14 02:07:51;;;;;;;73.65;24.02;;;;;;;-1.84;100.00;100576.56;1649294;83;22362;-89
2022/01/14 02:10:21;;;;;;;82.60;24.63;;;;;;;-1.80;100.00;100575.69;1690797;83;21103;-89
2022/01/14 02:12:52;;;;;;;77.65;25.08;;;;;;;-1.79;100.00;100555.37;1670605;85;21119;-89
2022/01/14 02:15:30;;;;;;;79.53;24.18;;;;;;;-1.75;100.00;100550.08;1670823;85;21058;-89
2022/01/14 02:23:27;;;;;;;81.22;23.70;;;;;;;-1.67;100.00;100528.87;1670518;85;21596;-89
2022/01/14 02:25:53;;;;;;;77.10;23.60;;;;;;;-1.68;100.00;100516.13;1670581;85;21052;-90
2022/01/14 02:28:20;;;;;;;78.83;23.42;;;;;;;-1.67;100.00;100505.91;1670423;85;21016;-88
2022/01/14 02:30:49;;;;;;;70.30;21.35;;;;;;;-1.68;100.00;100510.85;1670439;85;21154;-89
2022/01/14 02:33:17;;;;;;;76.05;23.50;;;;;;;-1.66;100.00;100512.00;1670923;85;21099;-88
2022/01/14 02:35:46;;;;;;;71.33;23.25;;;;;;;-1.64;100.00;100508.69;1670924;85;21155;-89
2022/01/14 02:38:14;;;;;;;79.35;24.12;;;;;;;-1.63;100.00;100502.39;1670983;85;21072;-88
2022/01/14 02:40:41;;;;;;;72.47;22.55;;;;;;;-1.62;100.00;100482.89;1671521;85;21035;-88
2022/01/14 02:43:13;;;;;;;71.70;21.87;;;;;;;-1.61;100.00;100480.08;1671639;85;21576;-89
2022/01/14 02:45:36;;;;;;;66.53;21.70;;;;;;;-1.59;100.00;100471.95;1667778;85;21097;-88
2022/01/14 02:48:04;;;;;;;73.17;22.22;;;;;;;-1.57;100.00;100472.59;1647379;85;21577;-89
2022/01/14 02:50:52;;;;;;;67.45;22.82;;;;;;;-1.56;100.00;100466.81;1671205;85;21499;-88
2022/01/14 02:53:25;;;;;;;72.75;22.45;;;;;;;-1.56;100.00;100461.02;1666763;85;21556;-88
2022/01/14 02:55:43;;;;;;;70.85;22.10;;;;;;;-1.54;100.00;100453.73;1667096;85;21075;-87
2022/01/14 02:58:10;;;;;;;68.67;20.92;;;;;;;-1.52;100.00;100437.20;1670893;85;21020;-88
2022/01/14 03:00:36;;;;;;;70.95;21.57;;;;;;;-1.50;100.00;100431.24;1671128;85;21074;-88
2022/01/14 03:03:05;;;;;;;59.55;19.77;;;;;;;-1.45;100.00;100427.52;1671216;85;21019;-88
2022/01/14 03:05:31;;;;;;;68.97;21.48;;;;;;;-1.42;100.00;100428.47;1670932;85;21166;-88
2022/01/14 03:07:58;;;;;;;66.72;20.90;;;;;;;-1.40;100.00;100423.02;1670946;85;21027;-89
2022/01/14 03:10:24;;;;;;;72.42;21.37;;;;;;;-1.37;100.00;100426.61;1680129;85;21043;-88
2022/01/14 03:12:51;;;;;;;71.37;21.20;;;;;;;-1.34;100.00;100429.38;1682708;85;21960;-88
2022/01/14 03:15:19;;;;;;;63.75;19.98;;;;;;;-1.34;100.00;100432.84;1682675;84;21039;-88
2022/01/14 03:17:45;;;;;;;69.95;21.20;;;;;;;-1.31;100.00;100431.66;1682728;85;20985;-88
2022/01/14 03:20:34;;;;;;;66.10;22.58;;;;;;;-1.35;100.00;100413.19;1682857;85;20993;-88
2022/01/14 03:22:52;;;;;;;69.32;21.40;;;;;;;-1.24;100.00;100423.28;1679143;83;21032;-88
2022/01/14 03:27:54;;;;;;;70.70;22.42;;;;;;;-1.17;100.00;100416.27;1682655;85;21041;-88
2022/01/14 03:30:20;;;;;;;67.70;22.17;;;;;;;-1.15;100.00;100400.53;1682882;85;20969;-87
2022/01/14 03:32:48;;;;;;;71.65;21.52;;;;;;;-1.12;100.00;100396.66;1683008;85;20882;-88
2022/01/14 03:35:14;;;;;;;69.58;21.15;;;;;;;-1.09;100.00;100396.80;1656000;86;21140;-88
2022/01/14 03:37:40;;;;;;;60.85;20.90;;;;;;;-1.07;100.00;100388.99;1656409;86;21165;-89
2022/01/14 03:40:09;;;;;;;63.73;21.45;;;;;;;-1.06;100.00;100380.08;1656466;86;21035;-88
2022/01/14 03:42:35;;;;;;;64.35;21.37;;;;;;;-1.03;100.00;100373.08;1656516;86;21070;-88
2022/01/14 03:45:01;;;;;;;66.80;20.77;;;;;;;-1.01;100.00;100365.76;1656406;86;20868;-88
2022/01/14 03:47:27;;;;;;;64.50;21.48;;;;;;;-0.99;100.00;100365.07;1656462;86;21721;-88
2022/01/14 03:49:53;;;;;;;59.35;20.55;;;;;;;-0.96;100.00;100358.59;1632675;86;22643;-89
2022/01/14 03:52:19;;;;;;;66.10;21.07;;;;;;;-0.92;100.00;100350.58;1656518;85;20919;-89
2022/01/14 03:54:45;;;;;;;65.67;20.08;;;;;;;-0.89;100.00;100350.70;1656307;86;21007;-87
2022/01/14 03:57:11;;;;;;;63.20;20.35;;;;;;;-0.85;100.00;100332.11;1656730;86;21550;-88
2022/01/14 03:59:37;;;;;;;66.90;21.02;;;;;;;-0.81;100.00;100324.13;1656543;86;21006;-88
2022/01/14 04:02:03;;;;;;;68.05;22.13;;;;;;;-0.79;100.00;100316.83;1656309;86;21161;-88
2022/01/14 04:04:29;;;;;;;67.08;21.25;;;;;;;-0.77;100.00;100305.02;1652560;85;21124;-87
2022/01/14 04:06:55;;;;;;;60.67;20.12;;;;;;;-0.73;100.00;100290.91;1650619;86;20879;-88
2022/01/14 04:09:21;;;;;;;62.50;19.32;;;;;;;-0.73;100.00;100290.41;1650887;86;20959;-88
2022/01/14 04:11:47;;;;;;;68.92;20.60;;;;;;;-0.69;100.00;100284.22;1652941;86;21759;-88
2022/01/14 04:16:52;;;;;;;61.30;19.32;;;;;;;-0.61;100.00;100271.35;1652427;86;21108;-89
2022/01/14 04:19:18;;;;;;;59.15;20.25;;;;;;;-0.60;100.00;100265.04;1652621;86;21034;-89
2022/01/14 04:21:46;;;;;;;61.23;19.85;;;;;;;-0.57;100.00;100265.97;1652686;86;21011;-89
2022/01/14 04:24:12;;;;;;;70.15;21.62;;;;;;;-0.54;100.00;100273.52;1652754;86;21507;-88
2022/01/14 04:26:38;;;;;;;63.42;20.08;;;;;;;-0.52;100.00;100276.80;1653327;86;21099;-88
2022/01/14 04:29:04;;;;;;;69.67;20.68;;;;;;;-0.48;100.00;100271.41;1649182;86;21081;-88
2022/01/14 04:31:30;;;;;;;69.15;20.68;;;;;;;-0.46;100.00;100265.42;1667933;83;20987;-88
2022/01/14 04:33:58;;;;;;;68.17;21.40;;;;;;;-0.42;100.00;100262.69;1717357;83;20843;-89
2022/01/14 04:36:24;;;;;;;62.90;20.32;;;;;;;-0.41;100.00;100259.53;1717523;83;21086;-88
2022/01/14 04:38:49;;;;;;;65.45;20.02;;;;;;;-0.38;100.00;100257.81;1717518;83;21894;-89
2022/01/14 04:41:15;;;;;;;69.20;21.60;;;;;;;-0.36;100.00;100246.53;1717544;83;20895;-88
2022/01/14 04:43:41;;;;;;;63.30;20.48;;;;;;;-0.34;100.00;100252.45;1717258;83;20896;-87
2022/01/14 04:48:36;;;;;;;67.80;20.43;;;;;;;-0.30;100.00;100245.73;1717479;83;20987;-88
2022/01/14 04:51:06;;;;;;;69.85;20.08;;;;;;;-0.30;100.00;100243.91;1717570;83;21598;-88
2022/01/14 04:53:33;;;;;;;61.23;18.12;;;;;;;-0.27;100.00;100244.02;1712369;83;21093;-88
2022/01/14 04:55:59;;;;;;;60.55;18.73;;;;;;;-0.24;100.00;100242.30;1717414;83;21030;-88
2022/01/14 04:58:27;;;;;;;62.88;20.15;;;;;;;-0.24;100.00;100233.03;1717323;83;20967;-88
2022/01/14 05:00:54;;;;;;;63.68;19.87;;;;;;;-0.22;100.00;100220.42;1717414;83;21073;-88
2022/01/14 05:03:20;;;;;;;58.42;19.85;;;;;;;-0.21;100.00;100222.05;1717273;83;21911;-89
2022/01/14 05:05:49;;;;;;;67.72;21.45;;;;;;;-0.18;100.00;100220.84;1717567;83;21129;-87
2022/01/14 05:08:35;;;;;;;64.22;21.42;;;;;;;-0.15;100.00;100221.77;1716890;83;21594;-88
2022/01/14 05:13:23;;;;;;;67.25;19.85;;;;;;;-0.12;100.00;100223.53;1707104;84;21090;-89
2022/01/14 05:15:50;;;;;;;64.65;20.82;;;;;;;-0.11;100.00;100208.45;1706631;84;21126;-88
2022/01/14 05:18:19;;;;;;;64.30;19.55;;;;;;;-0.09;100.00;100211.21;1706860;84;20984;-89
2022/01/14 05:20:45;;;;;;;64.87;20.80;;;;;;;-0.06;100.00;100200.70;1706989;84;21117;-88
2022/01/14 05:23:11;;;;;;;65.10;21.35;;;;;;;-0.05;100.00;100201.84;1706687;84;21081;-89
2022/01/14 05:25:38;;;;;;;70.20;21.52;;;;;;;-0.03;100.00;100196.33;1703080;84;21085;-87
2022/01/14 05:28:04;;;;;;;69.05;21.68;;;;;;;-0.02;100.00;100197.47;1706728;84;21083;-89
2022/01/14 05:30:30;;;;;;;67.95;20.32;;;;;;;0.01;100.00;100197.58;1706837;84;21011;-91
2022/01/14 05:32:57;;;;;;;70.20;20.27;;;;;;;0.03;100.00;100194.23;1707062;84;21070;-91
2022/01/14 05:35:26;;;;;;;72.03;20.23;;;;;;;0.05;100.00;100183.42;1706672;84;21134;-91
2022/01/14 05:37:52;;;;;;;66.90;21.15;;;;;;;0.07;100.00;100183.53;1706853;84;21058;-91
2022/01/14 05:40:21;;;;;;;74.60;22.15;;;;;;;0.11;100.00;100175.47;1706822;84;21186;-91
2022/01/14 05:42:47;;;;;;;64.60;20.02;;;;;;;0.16;100.00;100170.39;1706982;84;21047;-92
2022/01/14 05:45:16;;;;;;;72.37;21.12;;;;;;;0.18;100.00;100164.39;1706962;84;21515;-92
2022/01/14 05:47:42;;;;;;;79.65;22.15;;;;;;;0.19;100.00;100163.88;1707190;82;21019;-91
2022/01/14 05:50:12;;;;;;;66.97;21.20;;;;;;;0.22;100.00;100163.47;1706941;84;21702;-91
2022/01/14 05:52:39;;;;;;;68.50;21.37;;;;;;;0.23;100.00;100158.47;1708726;83;21132;-92
2022/01/14 05:55:08;;;;;;;67.70;21.70;;;;;;;0.28;100.00;100167.16;1709019;83;21051;-92
2022/01/14 05:57:37;;;;;;;76.95;21.97;;;;;;;0.28;100.00;100159.20;1710109;83;21016;-91
2022/01/14 06:00:06;;;;;;;67.67;20.37;;;;;;;0.31;100.00;100154.82;1704483;82;21011;-91
2022/01/14 06:02:32;;;;;;;73.30;21.75;;;;;;;0.34;100.00;100159.20;1684983;84;21137;-91
2022/01/14 06:04:58;;;;;;;72.53;22.00;;;;;;;0.37;100.00;100163.28;1684722;84;21211;-91
2022/01/14 06:07:23;;;;;;;81.53;22.75;;;;;;;0.38;100.00;100150.32;1707350;84;21062;-91
2022/01/14 06:09:49;;;;;;;85.90;23.60;;;;;;;0.42;100.00;100143.61;1687085;83;20967;-90
2022/01/14 06:12:15;;;;;;;72.82;22.98;;;;;;;0.44;100.00;100137.09;1715462;83;21653;-91
2022/01/14 06:14:43;;;;;;;83.42;23.00;;;;;;;0.47;100.00;100125.75;1687102;83;21086;-92
2022/01/14 06:17:09;;;;;;;81.95;22.58;;;;;;;0.50;100.00;100122.20;1715793;83;21249;-92
2022/01/14 06:19:35;;;;;;;70.70;21.80;;;;;;;0.55;100.00;100112.30;1716439;82;21085;-93
2022/01/14 06:22:01;;;;;;;72.08;22.58;;;;;;;0.57;100.00;100100.47;1731187;82;21116;-92
2022/01/14 06:24:27;;;;;;;72.58;22.02;;;;;;;0.64;100.00;100103.91;1728472;82;20976;-91
2022/01/14 06:26:53;;;;;;;68.87;21.60;;;;;;;0.55;100.00;100082.62;1725514;83;20975;-91
2022/01/14 06:29:19;;;;;;;68.85;20.50;;;;;;;0.70;100.00;100093.50;1709599;83;21185;-91
2022/01/14 06:31:45;;;;;;;67.65;20.72;;;;;;;0.73;100.00;100095.22;1728390;82;20951;-91
2022/01/14 06:34:12;;;;;;;74.95;22.02;;;;;;;0.76;100.00;100080.73;1728382;82;20971;-91
2022/01/14 06:36:38;;;;;;;67.05;21.00;;;;;;;0.79;100.00;100067.06;1723185;82;21579;-90
2022/01/14 06:39:04;;;;;;;65.00;20.08;;;;;;;0.87;100.00;100070.30;1708484;83;20957;-91
2022/01/14 06:41:29;;;;;;;65.78;20.37;;;;;;;0.93;100.00;100060.70;1728229;82;21417;-91
2022/01/14 06:43:57;;;;;;;66.15;20.60;;;;;;;1.00;100.00;100044.75;1717911;83;20888;-89
2022/01/14 06:46:23;;;;;;;68.05;21.10;;;;;;;1.06;100.00;100025.33;1719734;82;21078;-87
2022/01/14 06:48:49;;;;;;;62.48;20.23;;;;;;;1.15;100.00;100033.37;1720658;83;20960;-87
2022/01/14 06:51:15;;;;;;;63.10;20.20;;;;;;;1.20;100.00;100034.86;1715652;83;20975;-87
2022/01/14 06:53:42;;;;;;;61.02;19.77;;;;;;;1.25;100.00;100031.58;1719584;82;21189;-88
2022/01/14 06:58:38;;;;;;;87.75;25.68;;;;;;;1.31;100.00;100010.30;1699070;83;21020;-88
2022/01/14 07:01:04;;;;;;;70.55;23.32;;;;;;;1.36;100.00;100003.03;1657160;85;21022;-89
2022/01/14 07:03:31;;;;;;;65.55;21.65;;;;;;;1.39;100.00;99990.66;1680329;85;21318;-91
2022/01/14 07:05:56;;;;;;;70.00;22.40;;;;;;;1.45;100.00;99985.82;1680533;85;21136;-92
2022/01/14 07:08:22;;;;;;;78.67;24.55;;;;;;;1.50;100.00;99973.21;1680864;85;20969;-90
2022/01/14 07:10:49;;;;;;;64.07;20.80;;;;;;;1.57;100.00;99976.65;1679658;84;21073;-91
2022/01/14 07:13:15;;;;;;;63.92;20.48;;;;;;;1.60;100.00;99972.23;1678931;85;21530;-91
2022/01/14 07:15:42;;;;;;;78.57;23.62;;;;;;;1.67;100.00;99974.30;1678920;85;21057;-92
2022/01/14 07:18:09;;;;;;;65.28;20.75;;;;;;;1.70;100.00;99964.58;1679354;85;21661;-90
2022/01/14 07:20:39;;;;;;;60.38;19.52;;;;;;;1.77;100.00;99956.05;1678869;85;21010;-90
2022/01/14 07:23:07;;;;;;;61.42;19.55;;;;;;;1.86;100.00;99961.09;1656443;85;21089;-89
2022/01/14 07:25:33;;;;;;;66.35;22.22;;;;;;;1.92;100.00;99958.38;1644856;87;21033;-87
2022/01/14 07:27:59;;;;;;;63.17;19.15;;;;;;;1.97;100.00;99959.86;1644845;86;21081;-88
2022/01/14 07:30:25;;;;;;;58.48;19.50;;;;;;;2.02;100.00;99954.69;1644620;87;21177;-90
2022/01/14 07:32:52;;;;;;;61.00;19.70;;;;;;;2.04;100.00;99945.18;1644504;87;21133;-91
2022/01/14 07:35:18;;;;;;;51.80;18.07;;;;;;;2.07;100.00;99946.59;1644356;87;21053;-90
2022/01/14 07:37:44;;;;;;;55.35;17.67;;;;;;;2.11;100.00;99949.09;1640174;85;21111;-89
2022/01/14 07:40:12;;;;;;;54.25;17.17;;;;;;;2.10;100.00;99942.97;1644396;86;20895;-86
2022/01/14 07:42:38;;;;;;;55.28;17.05;;;;;;;2.12;100.00;99940.91;1644468;85;21108;-88
2022/01/14 07:45:06;;;;;;;54.13;16.90;;;;;;;2.12;100.00;99939.58;1644160;87;21045;-88
2022/01/14 07:47:32;;;;;;;50.28;15.35;;;;;;;2.16;100.00;99926.14;1644730;87;21089;-88
2022/01/14 07:49:59;;;;;;;51.63;16.40;;;;;;;2.27;100.00;99913.97;1644272;85;21061;-86
2022/01/14 07:52:25;;;;;;;46.92;15.40;;;;;;;2.39;100.00;99902.07;1644560;87;21116;-87
2022/01/14 07:54:51;;;;;;;46.53;15.75;;;;;;;2.56;100.00;99898.26;1641868;86;21079;-86
2022/01/14 07:57:19;;;;;;;44.18;15.13;;;;;;;2.64;100.00;99889.45;1631257;88;21137;-85
2022/01/14 07:59:46;;;;;;;44.48;15.32;;;;;;;2.71;100.00;99882.73;1630629;88;21069;-84
2022/01/14 08:02:20;;;;;;;43.48;15.45;;;;;;;2.75;100.00;99879.91;1631033;88;21573;-86
2022/01/14 08:04:48;;;;;;;38.28;14.23;;;;;;;2.76;100.00;99878.05;1630251;88;21084;-85
2022/01/14 08:07:17;;;;;;;37.88;14.23;;;;;;;2.75;100.00;99873.25;1630311;88;21037;-84
2022/01/14 08:09:43;;;;;;;35.40;12.98;;;;;;;2.78;100.00;99864.82;1630517;87;21096;-85
2022/01/14 08:12:14;;;;;;;35.33;12.13;;;;;;;2.59;100.00;99840.14;1624697;88;21285;-84
2022/01/14 08:14:40;;;;;;;38.58;12.95;;;;;;;2.69;100.00;99852.88;1624334;88;21011;-84
2022/01/14 08:17:08;;;;;;;41.98;13.58;;;;;;;2.68;100.00;99851.27;1625085;88;21014;-84
2022/01/14 08:19:34;;;;;;;41.50;15.50;;;;;;;2.70;100.00;99833.22;1624916;88;21519;-84
2022/01/14 08:22:03;;;;;;;38.67;13.18;;;;;;;2.81;100.00;99837.77;1627119;84;21066;-84
2022/01/14 08:24:30;;;;;;;34.90;12.28;;;;;;;2.86;100.00;99831.25;1697341;84;21051;-84
2022/01/14 08:26:56;;;;;;;37.98;13.62;;;;;;;2.87;100.00;99823.55;1697621;84;21020;-84
2022/01/14 08:29:24;;;;;;;31.97;12.10;;;;;;;2.90;100.00;99814.30;1697555;84;21126;-84
2022/01/14 08:31:50;;;;;;;26.90;10.32;;;;;;;2.93;100.00;99806.66;1697277;84;21241;-84
2022/01/14 08:34:21;;;;;;;31.40;11.70;;;;;;;2.96;100.00;99810.72;1697673;84;21051;-85
2022/01/14 08:36:47;;;;;;;32.60;11.18;;;;;;;3.00;100.00;99795.09;1656092;86;21078;-86
2022/01/14 08:39:14;;;;;;;28.67;11.50;;;;;;;3.00;100.00;99787.95;1659325;86;21043;-86
2022/01/14 08:41:41;;;;;;;34.30;12.10;;;;;;;3.04;100.00;99777.12;1659897;86;21089;-86
2022/01/14 08:44:07;;;;;;;31.62;11.03;;;;;;;3.06;100.00;99773.72;1659912;86;21046;-86
2022/01/14 08:46:34;;;;;;;33.00;11.35;;;;;;;3.06;100.00;99773.72;1635493;86;21022;-85
2022/01/14 08:49:01;;;;;;;28.00;10.32;;;;;;;3.08;100.00;99758.84;1659257;86;21089;-86
2022/01/14 08:51:29;;;;;;;26.93;10.23;;;;;;;3.06;100.00;99754.25;1659440;86;21073;-86
2022/01/14 08:53:57;;;;;;;28.23;9.75;;;;;;;3.09;100.00;99751.13;1659605;86;21090;-85
2022/01/14 08:56:24;;;;;;;39.15;11.55;;;;;;;3.07;100.00;99747.38;1659518;86;22236;-85
2022/01/14 08:58:50;;;;;;;29.30;10.38;;;;;;;3.02;100.00;99736.61;1659595;86;21554;-85
2022/01/14 09:01:19;;;;;;;27.42;9.65;;;;;;;3.04;100.00;99729.74;1659883;86;20995;-85
2022/01/14 09:03:45;;;;;;;25.23;9.53;;;;;;;3.07;100.00;99727.42;1658937;86;21038;-85
2022/01/14 09:06:11;;;;;;;26.52;9.70;;;;;;;3.09;100.00;99720.02;1659525;86;21490;-86
2022/01/14 09:08:38;;;;;;;28.57;9.78;;;;;;;3.12;100.00;99712.09;1659446;86;21055;-85
2022/01/14 09:11:04;;;;;;;28.47;10.80;;;;;;;3.14;100.00;99713.45;1649094;86;21014;-86
2022/01/14 09:13:30;;;;;;;34.45;11.20;;;;;;;3.13;100.00;99701.73;1632893;86;21521;-85
2022/01/14 09:15:56;;;;;;;39.30;12.75;;;;;;;3.15;100.00;99689.00;1632882;86;21077;-85
2022/01/14 09:18:23;;;;;;;40.48;12.60;;;;;;;3.23;100.00;99675.84;1633077;86;21148;-85
2022/01/14 09:20:49;;;;;;;40.23;13.05;;;;;;;3.24;100.00;99665.50;1632771;86;21911;-85
2022/01/14 09:23:24;;;;;;;38.65;12.63;;;;;;;3.36;100.00;99663.61;1632402;87;21093;-86
2022/01/14 09:25:49;;;;;;;34.40;12.58;;;;;;;3.54;100.00;99658.11;1629627;86;21074;-87
2022/01/14 09:28:16;;;;;;;31.77;12.10;;;;;;;3.70;100.00;99650.41;1631535;87;21618;-85
2022/01/14 09:30:42;;;;;;;31.30;11.15;;;;;;;3.89;100.00;99635.05;1631560;87;21061;-86
2022/01/14 09:33:09;;;;;;;28.25;10.60;;;;;;;3.99;100.00;99626.69;1639345;86;21144;-85
2022/01/14 09:35:40;;;;;;;27.73;9.80;;;;;;;4.05;100.00;99628.39;1658739;85;21134;-86
2022/01/14 09:38:06;;;;;;;27.32;9.98;;;;;;;4.07;100.00;99611.64;1658844;84;21589;-86
2022/01/14 09:40:32;;;;;;;22.27;9.00;;;;;;;4.05;100.00;99601.73;1659015;86;21131;-86
2022/01/14 09:43:01;;;;;;;26.55;10.00;;;;;;;4.04;100.00;99596.13;1658665;86;21044;-85
2022/01/14 09:45:31;;;;;;;28.32;9.83;;;;;;;4.06;100.00;99591.91;1658749;85;21171;-85
2022/01/14 09:47:57;;;;;;;22.98;8.58;;;;;;;4.08;100.00;99585.78;1665223;85;21073;-85
2022/01/14 09:50:25;;;;;;;37.00;12.78;;;;;;;4.04;100.00;99570.00;1666663;85;21512;-85
2022/01/14 09:52:51;;;;;;;25.50;9.18;;;;;;;3.97;100.00;99564.01;1666918;84;22073;-85
2022/01/14 09:55:20;;;;;;;21.10;8.03;;;;;;;3.92;100.00;99552.75;1666266;85;21053;-86
2022/01/14 09:57:46;;;;;;;23.80;8.10;;;;;;;3.89;100.00;99557.77;1661770;85;21078;-85
2022/01/14 10:00:13;;;;;;;20.62;8.43;;;;;;;3.84;100.00;99549.15;1666391;85;21083;-86
2022/01/14 10:02:49;;;;;;;24.23;8.30;;;;;;;3.81;100.00;99555.77;1666360;85;21121;-87
2022/01/14 10:05:33;;;;;;;24.65;8.90;;;;;;;3.77;100.00;99545.84;1664966;85;21011;-86
2022/01/14 10:08:19;;;;;;;19.55;8.20;;;;;;;3.71;100.00;99537.48;1666714;85;21022;-85
2022/01/14 10:10:47;;;;;;;23.38;9.03;;;;;;;3.72;100.00;99533.23;1673106;83;21805;-85
2022/01/14 10:13:21;;;;;;;26.10;9.45;;;;;;;3.71;100.00;99522.30;1717905;83;21038;-87
2022/01/14 10:15:54;;;;;;;21.33;8.90;;;;;;;3.70;100.00;99529.19;1693385;84;21097;-85
2022/01/14 10:18:22;;;;;;;;;;;;;;;3.68;100.00;99520.62;1692008;84;21427;-86
2022/01/14 10:20:49;;;;;;;24.92;9.23;;;;;;;3.68;100.00;99505.47;1685538;84;20254;-86
2022/01/14 10:23:15;;;;;;;27.37;9.83;;;;;;;3.66;100.00;99504.09;1681822;84;21805;-87
2022/01/14 10:28:23;;;;;;;25.65;9.88;;;;;;;3.59;100.00;99493.06;1595809;89;21156;-86
2022/01/14 10:30:50;;;;;;;30.35;10.23;;;;;;;3.59;100.00;99473.09;1591666;89;21781;-87
2022/01/14 10:33:24;;;;;;;27.15;10.00;;;;;;;3.64;100.00;99476.34;1603429;88;21111;-86
2022/01/14 10:35:50;;;;;;;24.37;9.78;;;;;;;3.69;100.00;99466.31;1603411;89;22032;-87
2022/01/14 10:38:19;;;;;;;30.77;10.72;;;;;;;3.72;100.00;99454.63;1606813;89;21104;-88
2022/01/14 10:40:53;;;;;;;27.52;9.83;;;;;;;3.72;100.00;99443.17;1606849;87;21088;-89
2022/01/14 10:43:22;;;;;;;27.48;10.82;;;;;;;3.70;100.00;99442.60;1606618;89;20923;-89
2022/01/14 10:45:50;;;;;;;26.23;9.78;;;;;;;3.73;100.00;99430.13;1606871;89;21101;-88
2022/01/14 10:48:31;;;;;;;28.80;10.23;;;;;;;3.67;100.00;99433.77;1607094;89;21738;-88
2022/01/14 10:51:08;;;;;;;28.07;10.08;;;;;;;3.48;100.00;99404.72;1606669;88;21086;-88
2022/01/14 10:53:45;;;;;;;28.80;10.15;;;;;;;3.57;100.00;99418.44;1581409;90;21108;-88
2022/01/14 10:56:14;;;;;;;28.80;10.05;;;;;;;3.49;100.00;99395.67;1535366;93;21081;-88
2022/01/14 10:58:43;;;;;;;35.25;10.98;;;;;;;3.50;100.00;99380.49;1521378;93;21097;-89
2022/01/14 11:01:19;;;;;;;30.37;11.22;;;;;;;3.50;100.00;99380.49;1489780;93;22058;-89
2022/01/14 11:03:57;;;;;;;36.17;11.55;;;;;;;3.50;100.00;99372.00;1515465;92;21043;-91
2022/01/14 11:06:41;;;;;;;34.75;11.48;;;;;;;3.45;100.00;99362.59;1513486;93;21152;-88
2022/01/14 11:09:18;;;;;;;28.00;10.85;;;;;;;3.42;100.00;99363.09;1510275;93;21172;-86
2022/01/14 11:11:49;;;;;;;24.77;9.43;;;;;;;3.40;100.00;99368.64;1520068;91;21213;-90
2022/01/14 11:14:16;;;;;;;24.65;7.90;;;;;;;3.35;100.00;99357.94;1576670;90;21206;-89
2022/01/14 11:16:43;;;;;;;20.45;8.05;;;;;;;3.30;100.00;99358.38;1577428;90;21117;-89
2022/01/14 11:19:09;;;;;;;16.50;6.05;;;;;;;3.29;100.00;99354.88;1555033;90;21124;-88
2022/01/14 11:24:33;;;;;;;19.32;6.05;;;;;;;3.27;100.00;99351.67;1568143;90;21712;-87
2022/01/14 11:27:05;;;;;;;16.25;6.00;;;;;;;3.24;100.00;99339.38;1526386;92;21159;-90
2022/01/14 11:29:36;;;;;;;16.10;5.60;;;;;;;3.24;100.00;99332.72;1483499;95;21854;-88
2022/01/14 11:32:05;;;;;;;16.20;5.70;;;;;;;3.27;100.00;99328.24;1480998;95;21155;-88
2022/01/14 11:34:36;;;;;;;19.77;6.30;;;;;;;3.23;100.00;99307.94;1523376;92;21185;-88
2022/01/14 11:37:13;;;;;;;17.15;6.08;;;;;;;3.17;100.00;99291.08;1530337;92;21125;-89
2022/01/14 11:39:56;;;;;;;17.30;6.30;;;;;;;3.19;100.00;99294.84;1495497;94;21206;-89
2022/01/14 11:42:44;;;;;;;14.87;5.45;;;;;;;3.17;100.00;99276.97;1495171;94;21143;-89
2022/01/14 11:45:17;;;;;;;18.82;5.85;;;;;;;3.14;100.00;99259.63;1493674;94;21133;-88
2022/01/14 11:47:48;;;;;;;17.30;5.90;;;;;;;3.13;100.00;99254.56;1495670;94;21058;-90